• Join FlightAware (Why Join?)
  • Login
  • US Flag 
09:28AM EDT


 

Airport Tracker/Info


-or-


 

Live Flight TrackerFlight Track Log ✈ N1906H ✈ 16-Oct-2013 ✈ KAMW - KAMW

Flight Track Log - Related Links

Times and Time Zones

All times are in EDT time to prevent confusion due to time zone crossing. See the N1906H flight status page for this flight to view local times or setup timezone preferences in your user account.

Time Position Orientation Groundspeed Altitude Reporting Facility
EDT Latitude Longitude Course Direction KTS MPH feet Rate Location/Type
06:49PM 42.0692 -93.7411 310° West 138 159 3,000  Level Minneapolis Center
06:50PM 42.0967 -93.7853 310° West 138 159 2,900 -60 Descending Minneapolis Center
06:51PM 42.1078 -93.8269 290° West 137 158 2,900  Level Minneapolis Center
06:51PM 42.1200 -93.8239 11° North 137 158 2,900  Level Minneapolis Center
06:52PM 42.1328 -93.8642 293° West 135 155 2,900  Level Minneapolis Center
06:52PM 42.1475 -93.8625 North 133 153 2,900  Level Minneapolis Center
06:53PM 42.1586 -93.9011 291° West 136 157 2,900  Level Minneapolis Center
06:53PM 42.1753 -93.9042 352° North 136 157 2,900 60 Level Minneapolis Center
06:54PM 42.1856 -93.9414 290° West 136 157 3,000  Climbing Minneapolis Center
06:55PM 42.2258 -93.9703 332° Northwest 130 150 3,000 -60 Level Minneapolis Center
06:57PM 42.1817 -93.9041 132° Southeast  Level Estimated
07:04PM 41.9938 -93.6245 132° Southeast  Level Estimated
07:05PM 41.9921 -93.6218 132° Southeast  Level Estimated
07:06PM 41.9921 -93.6218 209° Southwest  Level Estimated
07:06PM 42.0283 -93.8175 209° Southwest 116 133 2,500  Level Minneapolis Center
07:07PM 41.9921 -93.6218 209° Southwest  Level Estimated
07:07PM 42.0175 -93.8247 206° Southwest 102 117 2,600  Level Minneapolis Center
07:08PM 41.9921 -93.6218 209° Southwest  Level Estimated
07:08PM 42.0031 -93.7983 126° Southeast 105 121 3,200  Level Minneapolis Center
07:08PM 41.9914 -93.8061 206° Southwest 105 121 3,400 780 Climbing Minneapolis Center
07:09PM 41.9921 -93.6218 209° Southwest  Level Estimated
07:09PM 41.9758 -93.7767 125° Southeast 112 129 4,000  Level Minneapolis Center
07:09PM 41.9614 -93.7819 195° South 115 132 4,000 60 Level Minneapolis Center
07:09PM 41.9442 -93.7522 128° Southeast 145 167 4,100  Climbing Minneapolis Center
07:10PM 41.9921 -93.6218 209° Southwest  Level Estimated
07:10PM 41.9258 -93.7525 181° South 145 167 4,000  Level Minneapolis Center
07:10PM 41.9042 -93.7225 134° Southeast 168 193 4,000 -120 Level Minneapolis Center
07:11PM 41.9921 -93.6218 209° Southwest  Level Estimated
07:11PM 41.8831 -93.7217 178° South 160 184 3,900  Level Minneapolis Center
07:11PM 41.8683 -93.6869 120° Southeast 165 190 3,800  Descending Minneapolis Center
07:12PM 41.9921 -93.6218 209° Southwest  Level Estimated
07:12PM 41.8519 -93.6792 161° South 161 185 3,900  Level Minneapolis Center
07:12PM 41.8447 -93.6428 105° East 159 183 3,900  Level Minneapolis Center
07:13PM 41.8244 -93.6333 161° South 159 183 3,900  Level Minneapolis Center
07:13PM 41.8092 -93.6325 178° South 152 175 3,900  Level Minneapolis Center
07:14PM 41.8067 -93.6664 264° West 139 160 3,900 60 Level Minneapolis Center
07:14PM 41.8283 -93.6683 356° North 127 146 4,000 60 Climbing Minneapolis Center
07:15PM 41.8386 -93.6883 305° West 129 148 4,000  Level Minneapolis Center
07:15PM 41.8600 -93.6872 North 131 151 4,000 -120 Level Minneapolis Center
07:16PM 41.8733 -93.7083 310° West 127 146 3,900 -420 Descending Minneapolis Center
07:16PM 41.8936 -93.7058 North 117 135 3,600 -600 Descending Minneapolis Center
07:17PM 41.9019 -93.7289 296° West 118 136 3,300 -480 Descending Minneapolis Center
07:17PM 41.9167 -93.7278 North 119 137 3,200 -300 Descending Minneapolis Center
07:18PM 41.9319 -93.7533 309° West 118 136 3,000 -240 Descending Minneapolis Center
07:18PM 41.9483 -93.7494 10° North 116 133 3,000 -120 Level Minneapolis Center
07:19PM 41.9581 -93.7764 296° West 112 129 2,900 -120 Descending Minneapolis Center
07:19PM 41.9714 -93.7711 16° North 105 121 2,900 -420 Level Minneapolis Center
07:20PM 41.9819 -93.7956 300° West 95 109 2,500 -540 Descending Minneapolis Center
07:20PM 41.9947 -93.7903 17° North 96 110 2,400 -420 Descending Minneapolis Center
07:21PM 42.0044 -93.8139 299° West 100 115 2,100 120 Descending Minneapolis Center
07:24PM 42.0664 -93.8669 328° Northwest 84 97 3,000 300 Climbing Minneapolis Center
07:24PM 42.0575 -93.8819 231° Southwest 96 110 3,100 960 Climbing Minneapolis Center
07:24PM 42.0581 -93.8783 78° East 94 108 3,400 720 Climbing Minneapolis Center
07:25PM 42.0361 -93.9083 225° Southwest 104 120 3,900 540 Climbing Minneapolis Center
07:25PM 42.0314 -93.9125 213° Southwest 137 158 4,000 60 Climbing Minneapolis Center
07:26PM 42.0072 -93.9444 224° Southwest 125 144 4,000 60 Level Minneapolis Center
07:26PM 42.0089 -93.9464 319° Northwest 142 163 4,100  Climbing Minneapolis Center
07:27PM 42.0025 -93.9942 260° West 141 162 4,000 -120 Descending Minneapolis Center
07:28PM 42.0114 -93.9994 336° Northwest 132 152 4,000  Level Minneapolis Center
07:28PM 42.0031 -94.0456 256° West 131 151 4,000 -120 Level Minneapolis Center
07:29PM 42.0100 -94.0525 323° Northwest 142 163 3,900 -120 Descending Minneapolis Center
07:29PM 42.0056 -94.0961 262° West 135 155 3,900  Level Minneapolis Center
07:30PM 42.0147 -94.1056 323° Northwest 132 152 3,900 60 Level Minneapolis Center
07:30PM 42.0094 -94.1489 261° West 132 152 4,000  Climbing Minneapolis Center
07:31PM 42.0192 -94.1531 342° North 132 152 3,900  Descending Minneapolis Center
07:31PM 42.0114 -94.1978 257° West 131 151 4,000 60 Climbing Minneapolis Center
07:31PM 42.0217 -94.1978 360° North 129 148 4,000  Level Minneapolis Center
07:32PM 42.0028 -94.2442 241° Southwest 127 146 4,000 -240 Level Minneapolis Center
07:32PM 42.0053 -94.2400 51° Northeast 134 154 3,800 -540 Descending Minneapolis Center
07:33PM 41.9744 -94.2822 226° Southwest 170 196 3,400 -300 Descending Minneapolis Center
07:34PM 41.9386 -94.2817 179° South 153 176 3,300 -360 Descending Minneapolis Center
07:35PM 41.9017 -94.2472 145° Southeast 148 170 2,800 -360 Descending Minneapolis Center
07:36PM 41.8753 -94.2156 138° Southeast 141 162 2,600 -180 Descending Minneapolis Center
07:39PM 41.8056 -94.1383 140° Southeast 96 110 2,300 -60 Descending Minneapolis Center
07:40PM 41.8064 -94.1231 86° East 116 133 2,500 600 Climbing Minneapolis Center
07:41PM 41.7811 -94.0983 144° Southeast 113 130 3,100 540 Climbing Minneapolis Center
07:42PM 41.7558 -94.0708 141° Southeast 122 140 3,600 300 Climbing Minneapolis Center
07:42PM 41.7228 -94.0525 158° South 133 153 3,700 60 Climbing Minneapolis Center
07:43PM 41.7264 -94.0381 71° East 140 161 3,700 -240 Level Minneapolis Center
07:43PM 41.6917 -94.0089 148° Southeast 150 173 3,500 -240 Descending Minneapolis Center
07:44PM 41.6989 -93.9939 57° Northeast 161 185 3,500 -120 Level Minneapolis Center
07:45PM 41.6825 -93.9531 118° Southeast 153 176 3,400 -120 Descending Minneapolis Center
07:45PM 41.6878 -93.9386 64° Northeast 155 178 3,400 180 Level Minneapolis Center
07:46PM 41.6503 -93.9336 174° South 142 163 3,600 180 Climbing Minneapolis Center
07:46PM 41.6564 -93.9281 34° Northeast 138 159 3,600  Level Minneapolis Center
07:47PM 41.6561 -93.9722 270° West 132 152 3,600  Level Minneapolis Center
07:47PM 41.6653 -93.9667 24° Northeast 131 151 3,600  Level Minneapolis Center
07:48PM 41.6858 -94.0028 307° West 128 147 3,600  Level Minneapolis Center
07:48PM 41.6925 -93.9942 44° Northeast 126 145 3,600 -120 Level Minneapolis Center
07:49PM 41.7200 -94.0214 324° Northwest 119 137 3,500 -120 Descending Minneapolis Center
07:49PM 41.7119 -94.0322 225° Southwest 124 143 3,500 -120 Level Minneapolis Center
07:50PM 41.7431 -94.0489 338° Northwest 112 129 3,400 -120 Descending Minneapolis Center
07:50PM 41.7378 -94.0614 241° Southwest 115 132 3,400 -540 Level Minneapolis Center
07:51PM 41.7642 -94.0736 341° North 99 114 2,900 -540 Descending Minneapolis Center
07:51PM 41.7572 -94.0844 229° Southwest 95 109 2,900 -600 Level Minneapolis Center
07:52PM 41.7853 -94.0983 340° North 100 115 2,300 -600 Descending Minneapolis Center
07:52PM 41.7800 -94.1078 233° Southwest 100 115 2,300 -600 Level Minneapolis Center
07:53PM 41.8083 -94.1231 338° Northwest 105 121 1,700 -540 Descending Minneapolis Center
07:53PM 41.8008 -94.1331 225° Southwest 108 124 1,800  Climbing Minneapolis Center
07:54PM 41.8169 -94.1311 North 105 121 1,700 480 Descending Minneapolis Center
07:55PM 41.8533 -94.1878 311° West 105 121 2,800 840 Climbing Minneapolis Center
07:56PM 41.8819 -94.1886 359° North 109 125 3,400 960 Climbing Minneapolis Center
07:56PM 41.8781 -94.1933 222° Southwest 126 145 3,800 540 Climbing Minneapolis Center
07:57PM 41.8672 -94.1414 106° East 139 160 4,100 120 Climbing Minneapolis Center
07:58PM 41.8622 -94.0886 97° East 163 188 4,100 180 Level Minneapolis Center
07:58PM 41.8519 -94.0861 170° South 155 178 4,300  Climbing Minneapolis Center
07:59PM 41.8472 -94.0331 97° East 157 181 4,100 -120 Descending Minneapolis Center
07:59PM 41.8353 -94.0272 160° South 157 181 4,200  Climbing Minneapolis Center
08:00PM 41.8278 -93.9778 101° East 153 176 4,100  Descending Minneapolis Center
08:00PM 41.8172 -93.9753 170° South 155 178 4,200  Climbing Minneapolis Center
08:01PM 41.8106 -93.9194 99° East 154 177 4,100  Descending Minneapolis Center
08:01PM 41.8003 -93.9228 194° South 155 178 4,200  Climbing Minneapolis Center
08:02PM 41.7933 -93.8669 99° East 157 181 4,100  Descending Minneapolis Center
08:02PM 41.7808 -93.8653 174° South 156 180 4,200  Climbing Minneapolis Center
08:03PM 41.7761 -93.8200 98° East 156 180 4,100 -120 Descending Minneapolis Center
08:03PM 41.7703 -93.8103 129° Southeast 157 181 4,100 -240 Level Minneapolis Center
08:04PM 41.7858 -93.7697 63° Northeast 130 150 3,900 -120 Descending Minneapolis Center
08:04PM 41.7833 -93.7614 112° Southeast 133 153 4,000 60 Climbing Minneapolis Center
08:05PM 41.7978 -93.7247 62° Northeast 117 135 4,000  Level Minneapolis Center
08:05PM 41.7969 -93.7219 112° Southeast 120 138 4,000  Level Minneapolis Center
08:06PM 41.8142 -93.6911 53° Northeast 109 125 4,000 -240 Level Minneapolis Center
08:06PM 41.8197 -93.6919 354° North 110 127 3,800 -720 Descending Minneapolis Center
08:07PM 41.8431 -93.6708 34° Northeast 114 131 3,300 -720 Descending Minneapolis Center
08:07PM 41.8486 -93.6781 316° Northwest 112 129 3,100 -720 Descending Minneapolis Center
08:08PM 41.8742 -93.6617 26° Northeast 114 131 2,600 -300 Descending Minneapolis Center
08:08PM 41.8806 -93.6656 336° Northwest 111 128 2,800 180 Climbing Minneapolis Center
08:09PM 41.9011 -93.6500 29° Northeast 106 122 2,800  Level Minneapolis Center
08:09PM 41.9072 -93.6553 327° Northwest 103 119 2,800 -420 Level Minneapolis Center
08:10PM 41.9303 -93.6381 29° Northeast 103 119 2,400 -720 Descending Minneapolis Center
08:10PM 41.9367 -93.6447 322° Northwest 107 123 2,100 -720 Descending Minneapolis Center
08:11PM 41.9572 -93.6292 29° Northeast 103 119 1,700 -420 Descending Minneapolis Center
08:11PM 41.9633 -93.6347 326° Northwest 101 116 1,700 300 Level Minneapolis Center
08:14PM 42.0278 -93.6078 17° North 85 98 2,500 420 Climbing Minneapolis Center
08:14PM 42.0383 -93.6131 340° North 89 102 2,900 720 Climbing Minneapolis Center
08:15PM 42.0219 -93.6472 237° Southwest 100 115 3,700 540 Climbing Minneapolis Center
08:16PM 41.9994 -93.6672 213° Southwest 101 116 4,100 60 Climbing Minneapolis Center
08:17PM 41.9744 -93.6789 199° South 91 105 3,900 -240 Descending Minneapolis Center
08:18PM 41.9494 -93.6822 186° South 88 101 3,700 -240 Descending Minneapolis Center
08:19PM 41.9267 -93.6939 201° Southwest 88 101 3,500 -240 Descending Minneapolis Center
08:20PM 41.9061 -93.7083 208° Southwest 85 98 3,300 60 Descending Minneapolis Center
08:21PM 41.8856 -93.7256 212° Southwest 87 100 3,700 360 Climbing Minneapolis Center
08:22PM 41.8628 -93.7400 205° Southwest 96 110 4,000 120 Climbing Minneapolis Center
08:23PM 41.8358 -93.7631 213° Southwest 111 128 4,000  Level Minneapolis Center
08:24PM 41.8108 -93.7664 186° South 119 137 4,100  Climbing Minneapolis Center
08:25PM 41.8064 -93.7275 99° East 125 144 4,100 -120 Level Minneapolis Center
08:26PM 41.8267 -93.6964 49° Northeast 107 123 3,900 -240 Descending Minneapolis Center
08:27PM 41.8494 -93.6761 34° Northeast 106 122 3,700 -240 Descending Minneapolis Center